Time;durP1;ratioP1;P1;durP2;ratioP2;P2;SDS_P1;SDS_P2;PMS_P1;PMS_P2;Temp;Humidity;BMP_temperature;BMP_pressure;BME280_temperature;BME280_humidity;BME280_pressure;Samples;Min_cycle;Max_cycle;Signal;HPM_P1;HPM_P2
2023/01/16 00:01:13;;;;;;;160.75;38.20;;;;;;;2.81;78.45;100570.89;1803502;79;21690;-80
2023/01/16 00:04:12;;;;;;;167.05;37.88;;;;;;;2.70;78.72;100567.69;1803410;79;21216;-80
2023/01/16 00:07:18;;;;;;;141.05;36.33;;;;;;;2.71;78.94;100570.76;1803273;79;21714;-81
2023/01/16 00:10:23;;;;;;;135.18;38.67;;;;;;;2.71;78.88;100565.84;1812387;79;21125;-80
2023/01/16 00:13:28;;;;;;;145.65;37.35;;;;;;;2.59;79.08;100563.63;1812225;79;21184;-80
2023/01/16 00:16:34;;;;;;;138.72;39.60;;;;;;;2.61;79.16;100563.00;1812199;79;21157;-81
2023/01/16 00:19:40;;;;;;;147.05;39.10;;;;;;;2.64;79.18;100561.92;1812198;79;21211;-81
2023/01/16 00:22:45;;;;;;;149.27;39.00;;;;;;;2.70;78.95;100560.08;1811895;79;21144;-81
2023/01/16 00:25:51;;;;;;;173.78;42.62;;;;;;;2.71;79.02;100557.25;1812137;79;21440;-81
2023/01/16 00:28:58;;;;;;;151.18;42.80;;;;;;;2.75;78.93;100558.73;1811189;79;21216;-80
2023/01/16 00:32:04;;;;;;;122.17;34.92;;;;;;;2.76;78.74;100552.34;1812255;79;21184;-80
2023/01/16 00:35:11;;;;;;;161.03;40.83;;;;;;;2.64;78.86;100554.67;1810683;79;21149;-81
2023/01/16 00:38:17;;;;;;;132.12;36.40;;;;;;;2.71;78.69;100551.84;1811011;79;21232;-81
2023/01/16 00:41:23;;;;;;;157.50;32.50;;;;;;;2.64;78.63;100549.77;1812129;79;21208;-81
2023/01/16 00:44:29;;;;;;;161.07;33.33;;;;;;;2.49;79.00;100549.09;1810762;79;21231;-80
2023/01/16 00:47:35;;;;;;;185.35;48.20;;;;;;;2.34;79.63;100550.28;1811638;79;21180;-80
2023/01/16 00:50:41;;;;;;;194.97;55.20;;;;;;;2.27;79.76;100539.97;1812106;79;21160;-79
2023/01/16 00:53:47;;;;;;;159.22;43.85;;;;;;;2.26;80.07;100543.65;1811927;79;21196;-79
2023/01/16 00:56:53;;;;;;;175.07;39.50;;;;;;;2.19;80.11;100534.28;1812173;79;21678;-80
2023/01/16 00:59:59;;;;;;;130.03;30.02;;;;;;;2.17;80.28;100536.25;1812228;79;21721;-79
2023/01/16 01:03:05;;;;;;;171.93;37.30;;;;;;;2.08;80.81;100538.80;1811788;79;21200;-79
2023/01/16 01:06:16;;;;;;;159.48;40.33;;;;;;;2.03;80.89;100541.84;1812108;79;21153;-80
2023/01/16 01:09:21;;;;;;;156.80;34.43;;;;;;;1.95;81.64;100532.11;1809721;79;21729;-81
2023/01/16 01:12:27;;;;;;;142.13;33.55;;;;;;;2.03;81.60;100528.34;1811887;79;21187;-80
2023/01/16 01:15:25;;;;;;;167.28;34.43;;;;;;;2.07;81.58;100523.55;1811904;79;21156;-81
2023/01/16 01:18:17;;;;;;;185.48;44.23;;;;;;;2.19;81.20;100519.93;1811093;79;21200;-80
2023/01/16 01:21:04;;;;;;;179.93;45.45;;;;;;;2.25;80.91;100512.70;1811785;79;21749;-80
2023/01/16 01:23:56;;;;;;;142.75;34.92;;;;;;;2.15;81.26;100509.85;1811224;79;21204;-80
2023/01/16 01:27:03;;;;;;;138.80;30.80;;;;;;;2.07;81.62;100504.67;1811964;79;21148;-80
2023/01/16 01:30:08;;;;;;;182.43;38.55;;;;;;;1.95;81.99;100501.94;1810501;79;21215;-80
2023/01/16 01:33:13;;;;;;;211.28;40.25;;;;;;;1.98;81.94;100507.11;1811373;79;21200;-80
2023/01/16 01:36:20;;;;;;;196.00;37.05;;;;;;;2.03;81.82;100493.27;1811877;79;21189;-79
2023/01/16 01:39:26;;;;;;;197.37;39.00;;;;;;;1.92;82.11;100490.02;1810418;79;21173;-80
2023/01/16 01:42:43;;;;;;;171.55;36.48;;;;;;;2.04;82.03;100484.19;1811747;79;21156;-81
2023/01/16 01:45:53;;;;;;;167.30;33.90;;;;;;;1.95;82.39;100491.64;1811784;79;21220;-80
2023/01/16 01:49:02;;;;;;;129.05;27.55;;;;;;;1.91;82.66;100488.80;1812125;79;21223;-81
2023/01/16 01:52:09;;;;;;;183.15;38.50;;;;;;;1.88;82.80;100485.83;1811931;79;21188;-81
2023/01/16 01:55:11;;;;;;;182.70;36.95;;;;;;;1.90;82.83;100496.53;1812032;79;21235;-81
2023/01/16 01:58:21;;;;;;;179.97;36.53;;;;;;;1.91;82.99;100497.75;1811899;79;21188;-81
2023/01/16 02:01:24;;;;;;;163.20;34.75;;;;;;;2.00;83.33;100497.55;1811843;79;21196;-81
2023/01/16 02:04:35;;;;;;;153.18;34.30;;;;;;;2.14;83.28;100493.79;1811857;79;21761;-80
2023/01/16 02:07:40;;;;;;;148.28;30.72;;;;;;;2.17;83.14;100488.17;1812020;79;21174;-80
2023/01/16 02:11:08;;;;;;;144.87;34.58;;;;;;;2.16;82.94;100481.02;1794457;79;21173;-80
2023/01/16 02:14:16;;;;;;;141.95;33.02;;;;;;;2.07;82.97;100484.43;1770915;81;21185;-80
2023/01/16 02:20:58;;;;;;;197.72;36.03;;;;;;;2.07;82.93;100483.08;1770980;81;21192;-80
2023/01/16 02:24:36;;;;;;;184.37;34.15;;;;;;;1.99;83.17;100483.20;1770951;81;21761;-80
2023/01/16 02:28:15;;;;;;;173.28;34.25;;;;;;;2.05;83.29;100481.86;1770996;81;21761;-81
2023/01/16 02:31:49;;;;;;;212.23;36.42;;;;;;;2.08;82.93;100478.94;1771086;81;21138;-80
2023/01/16 02:35:32;;;;;;;219.77;37.60;;;;;;;2.05;82.76;100471.06;1771099;81;21177;-81
2023/01/16 02:39:04;;;;;;;181.87;36.70;;;;;;;2.02;82.77;100469.94;1770994;81;21185;-81
2023/01/16 02:42:23;;;;;;;208.30;40.58;;;;;;;1.99;82.82;100473.75;1771170;81;21152;-80
2023/01/16 02:45:55;;;;;;;194.75;37.65;;;;;;;1.99;82.74;100472.41;1771108;81;21200;-80
2023/01/16 02:49:11;;;;;;;202.10;40.10;;;;;;;1.91;82.84;100476.17;1771019;81;21785;-80
2023/01/16 02:52:39;;;;;;;202.68;41.63;;;;;;;2.03;82.63;100477.94;1770988;81;21197;-80
2023/01/16 02:55:49;;;;;;;149.35;37.28;;;;;;;2.06;82.55;100478.17;1770270;81;21197;-80
2023/01/16 02:58:56;;;;;;;175.38;40.95;;;;;;;2.02;82.62;100469.48;1770118;81;21224;-80
2023/01/16 03:02:04;;;;;;;146.77;41.23;;;;;;;1.95;82.95;100474.11;1770908;81;21154;-80
2023/01/16 03:05:10;;;;;;;146.90;43.15;;;;;;;1.92;83.15;100467.09;1771059;81;21730;-80
2023/01/16 03:08:38;;;;;;;154.00;42.50;;;;;;;1.92;83.15;100459.00;1770974;81;21197;-80
2023/01/16 03:11:54;;;;;;;154.72;45.58;;;;;;;1.93;83.28;100465.25;1771767;80;21764;-80
2023/01/16 03:15:25;;;;;;;152.97;42.88;;;;;;;2.00;83.29;100470.56;1738019;81;21715;-80
2023/01/16 03:19:05;;;;;;;165.45;47.20;;;;;;;2.01;83.50;100473.63;1770963;81;21177;-79
2023/01/16 03:22:26;;;;;;;145.53;41.60;;;;;;;2.02;83.71;100474.87;1771127;81;21161;-80
2023/01/16 03:25:55;;;;;;;150.35;43.87;;;;;;;1.99;83.82;100474.25;1771034;81;21180;-80
2023/01/16 03:29:20;;;;;;;151.15;45.70;;;;;;;1.93;84.33;100477.39;1770974;81;21221;-80
2023/01/16 03:33:01;;;;;;;148.90;46.92;;;;;;;1.93;84.75;100480.09;1771043;81;21157;-80
2023/01/16 03:36:17;;;;;;;140.28;44.65;;;;;;;1.92;84.97;100477.02;1771017;81;21160;-80
2023/01/16 03:39:23;;;;;;;153.70;47.25;;;;;;;1.94;85.35;100483.18;1770999;81;21733;-80
2023/01/16 03:42:34;;;;;;;124.55;40.03;;;;;;;2.21;84.56;100491.86;1770952;81;21196;-80
2023/01/16 03:45:50;;;;;;;131.70;42.60;;;;;;;2.33;84.13;100491.88;1769767;81;21165;-81
2023/01/16 03:49:19;;;;;;;145.45;47.83;;;;;;;2.25;84.05;100489.27;1771096;81;21742;-80
2023/01/16 03:52:26;;;;;;;150.35;46.70;;;;;;;2.28;83.74;100490.88;1770989;81;21209;-81
2023/01/16 03:55:50;;;;;;;146.35;46.77;;;;;;;2.35;83.62;100493.46;1770913;81;21718;-80
2023/01/16 03:58:55;;;;;;;135.80;45.45;;;;;;;2.32;83.84;100487.47;1770977;81;21200;-80
2023/01/16 04:02:07;;;;;;;129.05;44.83;;;;;;;2.32;83.81;100498.27;1770979;81;21706;-81
2023/01/16 04:05:25;;;;;;;145.82;48.73;;;;;;;2.26;84.26;100485.61;1770956;81;21149;-81
2023/01/16 04:08:37;;;;;;;134.03;45.17;;;;;;;2.29;84.27;100489.41;1770288;81;21225;-79
2023/01/16 04:11:43;;;;;;;141.37;47.08;;;;;;;2.44;84.09;100494.59;1770484;79;21185;-80
2023/01/16 04:14:49;;;;;;;144.45;47.62;;;;;;;2.42;83.91;100491.16;1801538;79;21145;-80
2023/01/16 04:17:55;;;;;;;159.65;50.40;;;;;;;2.48;83.92;100497.42;1799879;79;21181;-80
2023/01/16 04:21:01;;;;;;;148.15;49.65;;;;;;;2.45;84.04;100492.28;1799914;79;21745;-79
2023/01/16 04:24:07;;;;;;;159.97;52.65;;;;;;;2.44;84.37;100501.34;1800347;79;21197;-80
2023/01/16 04:27:15;;;;;;;142.15;48.38;;;;;;;2.50;84.41;100500.39;1800604;79;21185;-80
2023/01/16 04:30:21;;;;;;;169.07;52.60;;;;;;;2.58;84.18;100499.77;1801113;79;21761;-81
2023/01/16 04:33:27;;;;;;;145.53;48.15;;;;;;;2.61;83.94;100495.98;1800739;79;21196;-81
2023/01/16 04:36:33;;;;;;;127.27;44.15;;;;;;;2.56;84.08;100494.99;1801252;79;21975;-80
2023/01/16 04:39:38;;;;;;;144.68;48.05;;;;;;;2.58;84.03;100490.81;1799877;79;21750;-80
2023/01/16 04:42:43;;;;;;;140.20;49.23;;;;;;;2.60;83.70;100488.37;1800365;79;21166;-80
2023/01/16 04:45:49;;;;;;;126.45;43.87;;;;;;;2.40;84.14;100490.41;1801343;79;21232;-80
2023/01/16 04:48:55;;;;;;;132.97;44.77;;;;;;;2.55;83.79;100494.14;1800378;79;21193;-80
2023/01/16 04:52:01;;;;;;;125.45;43.35;;;;;;;2.41;84.01;100485.41;1800058;79;21189;-79
2023/01/16 04:55:07;;;;;;;132.30;44.77;;;;;;;2.16;84.67;100487.28;1801372;79;21192;-80
2023/01/16 04:58:13;;;;;;;120.25;44.93;;;;;;;2.21;84.53;100480.17;1800000;79;21202;-79
2023/01/16 05:01:20;;;;;;;125.50;44.15;;;;;;;2.25;84.59;100478.97;1800929;79;21149;-80
2023/01/16 05:04:25;;;;;;;135.43;44.10;;;;;;;2.33;84.21;100471.63;1800089;79;21189;-80
2023/01/16 05:07:30;;;;;;;118.47;42.25;;;;;;;2.37;84.18;100470.42;1801484;79;21193;-80
2023/01/16 05:10:37;;;;;;;103.70;37.42;;;;;;;2.32;83.97;100469.92;1799931;79;21263;-81
2023/01/16 05:13:42;;;;;;;95.92;33.88;;;;;;;2.33;83.73;100475.68;1799510;79;21208;-80
2023/01/16 05:16:49;;;;;;;91.78;33.02;;;;;;;2.08;84.47;100469.49;1803383;79;21157;-81
2023/01/16 05:19:56;;;;;;;92.53;32.95;;;;;;;2.08;84.31;100469.49;1803372;79;21169;-80
2023/01/16 05:23:02;;;;;;;98.70;34.40;;;;;;;2.06;84.49;100466.03;1803043;79;21184;-79
2023/01/16 05:26:07;;;;;;;86.60;31.02;;;;;;;1.88;85.00;100463.39;1803436;79;21682;-80
2023/01/16 05:29:13;;;;;;;104.25;34.10;;;;;;;1.77;85.51;100460.17;1803268;79;21200;-80
2023/01/16 05:32:18;;;;;;;104.63;33.33;;;;;;;1.78;85.65;100461.89;1802693;79;21217;-79
2023/01/16 05:35:17;;;;;;;105.32;34.45;;;;;;;1.77;85.38;100455.64;1790145;79;21184;-80
2023/01/16 05:38:24;;;;;;;114.70;37.03;;;;;;;1.85;85.36;100460.95;1780422;78;21500;-79
2023/01/16 05:41:30;;;;;;;112.37;35.10;;;;;;;1.77;85.66;100461.03;1784748;79;21169;-80
2023/01/16 05:44:36;;;;;;;103.10;33.48;;;;;;;1.79;85.62;100457.75;1788561;79;21192;-80
2023/01/16 05:47:41;;;;;;;99.50;31.70;;;;;;;1.74;86.02;100460.39;1770346;80;21216;-80
2023/01/16 05:50:47;;;;;;;102.07;33.30;;;;;;;1.68;86.42;100458.17;1777274;79;21157;-80
2023/01/16 05:53:57;;;;;;;112.88;34.48;;;;;;;1.74;86.33;100463.09;1788853;79;21170;-80
2023/01/16 05:57:02;;;;;;;115.95;33.85;;;;;;;1.78;85.97;100458.70;1780785;79;21196;-80
2023/01/16 06:00:08;;;;;;;111.17;33.13;;;;;;;1.82;85.79;100453.94;1780951;79;21126;-80
2023/01/16 06:03:15;;;;;;;113.28;32.90;;;;;;;1.88;85.30;100458.00;1780444;79;21555;-80
2023/01/16 06:06:20;;;;;;;114.57;33.65;;;;;;;1.80;85.60;100459.95;1781864;79;21754;-80
2023/01/16 06:09:25;;;;;;;112.45;34.05;;;;;;;1.95;85.47;100461.96;1782969;79;21145;-80
2023/01/16 06:12:24;;;;;;;115.00;33.15;;;;;;;1.89;85.64;100455.70;1774922;79;21532;-79
2023/01/16 06:15:30;;;;;;;74.70;23.57;;;;;;;1.94;85.68;100462.95;1782507;79;21154;-80
2023/01/16 06:18:36;;;;;;;95.42;31.20;;;;;;;1.96;85.41;100458.28;1782549;79;21197;-80
2023/01/16 06:21:44;;;;;;;120.08;33.85;;;;;;;1.83;86.15;100457.49;1782521;79;21181;-80
2023/01/16 06:24:51;;;;;;;98.03;31.30;;;;;;;1.93;85.97;100461.20;1762690;79;251222;-80
2023/01/16 06:27:58;;;;;;;114.42;35.50;;;;;;;1.95;85.97;100460.62;1725387;81;21805;-78
2023/01/16 06:31:05;;;;;;;115.50;35.63;;;;;;;1.99;85.81;100455.36;1718998;81;21197;-80
2023/01/16 06:34:10;;;;;;;93.12;33.70;;;;;;;1.98;85.87;100450.95;1716304;81;21216;-79
2023/01/16 06:37:17;;;;;;;126.05;36.68;;;;;;;2.03;85.63;100446.05;1729345;81;21189;-79
2023/01/16 06:40:22;;;;;;;113.40;38.35;;;;;;;1.87;86.08;100443.66;1718763;81;21782;-81
2023/01/16 06:43:28;;;;;;;120.25;36.17;;;;;;;1.97;86.04;100447.86;1656927;84;21230;-80
2023/01/16 06:46:34;;;;;;;123.55;37.35;;;;;;;2.05;85.89;100448.13;1665082;84;21180;-80
2023/01/16 06:49:41;;;;;;;106.70;34.78;;;;;;;2.06;86.06;100448.50;1688037;83;21555;-79
2023/01/16 06:52:46;;;;;;;107.07;36.50;;;;;;;2.14;85.82;100445.22;1673250;84;21204;-79
2023/01/16 06:55:53;;;;;;;109.20;37.23;;;;;;;2.17;85.64;100443.15;1674815;84;21799;-81
2023/01/16 06:59:00;;;;;;;120.77;35.88;;;;;;;2.16;85.71;100451.34;1674429;83;21786;-81
2023/01/16 07:02:06;;;;;;;105.92;35.50;;;;;;;2.30;85.41;100451.98;1679639;84;21263;-81
2023/01/16 07:05:14;;;;;;;113.12;36.95;;;;;;;2.36;85.18;100454.72;1673008;84;21176;-81
2023/01/16 07:08:20;;;;;;;129.25;39.38;;;;;;;2.29;85.32;100455.66;1673039;84;21244;-79
2023/01/16 07:11:26;;;;;;;125.22;39.40;;;;;;;2.37;85.58;100458.27;1667139;83;21192;-80
2023/01/16 07:24:45;;;;;;;108.78;34.95;;;;;;;2.79;84.83;100465.67;1671008;84;30673;-81
2023/01/16 07:27:51;;;;;;;122.05;35.95;;;;;;;2.71;85.03;100464.06;1668219;84;21232;-81
2023/01/16 07:30:57;;;;;;;142.32;37.60;;;;;;;2.76;85.00;100464.55;1697066;83;21753;-80
2023/01/16 07:34:06;;;;;;;100.12;34.85;;;;;;;2.71;85.01;100453.26;1675415;84;21794;-80
2023/01/16 07:37:14;;;;;;;127.50;36.20;;;;;;;2.89;84.60;100454.98;1676016;84;21188;-80
2023/01/16 07:40:20;;;;;;;94.70;33.80;;;;;;;2.85;84.82;100452.16;1677145;84;21221;-81
2023/01/16 07:43:26;;;;;;;110.12;36.53;;;;;;;2.95;84.71;100449.56;1671217;84;21529;-81
2023/01/16 07:46:32;;;;;;;101.18;33.35;;;;;;;3.00;84.36;100452.75;1696523;83;21796;-81
2023/01/16 07:49:37;;;;;;;108.22;35.70;;;;;;;2.89;84.50;100456.33;1669151;84;21239;-92
2023/01/16 07:52:47;;;;;;;95.85;33.40;;;;;;;2.93;84.29;100446.14;1715118;82;21148;-91
2023/01/16 07:55:53;;;;;;;99.97;34.63;;;;;;;2.94;84.14;100435.20;1712023;83;21156;-89
2023/01/16 07:58:59;;;;;;;93.22;36.05;;;;;;;2.98;83.94;100433.97;1708838;83;21145;-91
2023/01/16 08:02:08;;;;;;;77.20;31.05;;;;;;;3.01;83.69;100435.55;1717355;80;21136;-91
2023/01/16 08:05:15;;;;;;;93.47;34.13;;;;;;;3.11;83.58;100435.69;1718742;83;21188;-80
2023/01/16 08:08:20;;;;;;;81.75;30.15;;;;;;;3.15;83.75;100436.63;1703024;83;21239;-81
2023/01/16 08:11:38;;;;;;;83.52;30.62;;;;;;;3.22;83.63;100432.95;1680191;84;21171;-84
2023/01/16 08:14:44;;;;;;;76.65;30.25;;;;;;;3.21;83.27;100438.85;1652845;85;21208;-81
2023/01/16 08:17:49;;;;;;;81.47;30.80;;;;;;;3.12;83.22;100440.10;1676249;83;21240;-79
2023/01/16 08:20:55;;;;;;;68.78;28.07;;;;;;;3.11;82.84;100437.04;1681901;84;21186;-89
2023/01/16 08:24:01;;;;;;;75.55;26.65;;;;;;;3.10;82.70;100433.45;1684503;84;21199;-91
2023/01/16 08:27:07;;;;;;;72.40;26.10;;;;;;;3.05;82.57;100430.27;1646901;86;21173;-91
2023/01/16 08:30:14;;;;;;;77.82;28.92;;;;;;;3.04;82.98;100433.95;1670647;84;21265;-80
2023/01/16 08:33:20;;;;;;;68.20;26.48;;;;;;;3.12;82.41;100434.20;1673472;84;22020;-81
2023/01/16 08:36:26;;;;;;;77.75;31.33;;;;;;;3.14;82.16;100428.66;1691455;83;21205;-81
2023/01/16 08:39:31;;;;;;;80.12;31.33;;;;;;;3.10;82.14;100420.43;1668385;84;21184;-81
2023/01/16 08:52:49;;;;;;;71.77;28.05;;;;;;;3.02;82.33;100415.17;1661510;84;21193;-81
2023/01/16 08:55:54;;;;;;;67.95;27.27;;;;;;;2.96;82.52;100420.20;1673064;84;21196;-81
2023/01/16 08:58:59;;;;;;;78.10;30.08;;;;;;;2.96;82.53;100413.45;1663750;84;21226;-79
2023/01/16 09:02:05;;;;;;;70.40;28.30;;;;;;;3.00;82.48;100408.16;1668149;84;21647;-80
2023/01/16 09:05:13;;;;;;;77.55;27.48;;;;;;;2.99;82.38;100405.10;1666451;84;21187;-80
2023/01/16 09:08:19;;;;;;;77.37;29.37;;;;;;;2.99;81.96;100402.40;1684462;83;21175;-80
2023/01/16 09:14:48;;;;;;;58.15;24.60;;;;;;;2.98;81.89;100404.74;1668649;84;21290;-80
2023/01/16 09:17:53;;;;;;;54.90;24.70;;;;;;;2.99;82.03;100393.80;1681598;84;21195;-89
2023/01/16 09:20:53;;;;;;;68.30;27.42;;;;;;;3.01;81.92;100389.14;1691624;83;21752;-89
2023/01/16 09:23:58;;;;;;;60.92;26.25;;;;;;;3.10;81.78;100391.55;1688413;84;21222;-80
2023/01/16 09:27:06;;;;;;;62.38;24.80;;;;;;;3.17;81.23;100385.17;1669263;84;21241;-90
2023/01/16 09:30:13;;;;;;;61.40;26.57;;;;;;;3.15;80.90;100380.36;1672403;84;21555;-89
2023/01/16 09:33:19;;;;;;;56.95;24.25;;;;;;;3.21;80.67;100385.28;1674892;84;21290;-88
2023/01/16 09:36:25;;;;;;;61.50;26.10;;;;;;;3.15;80.79;100390.68;1694618;83;21150;-81
2023/01/16 09:39:30;;;;;;;55.03;22.98;;;;;;;3.28;80.50;100381.07;1670064;84;21189;-81
2023/01/16 09:46:07;;;;;;;49.25;22.52;;;;;;;3.49;79.66;100377.08;1661057;84;21248;-86
2023/01/16 09:49:21;;;;;;;59.65;25.00;;;;;;;3.52;79.31;100383.06;1672265;84;21165;-89
2023/01/16 09:59:47;;;;;;;61.23;26.40;;;;;;;3.58;78.53;100389.33;1665638;84;21192;-89
2023/01/16 10:02:55;;;;;;;52.90;24.92;;;;;;;3.56;78.49;100384.52;1662859;84;21203;-80
2023/01/16 10:06:17;;;;;;;52.85;25.55;;;;;;;3.54;78.47;100387.02;1694983;83;21170;-90
2023/01/16 10:09:49;;;;;;;63.90;28.38;;;;;;;3.60;78.52;100383.78;1668497;84;21499;-89
2023/01/16 10:13:09;;;;;;;59.58;27.35;;;;;;;3.77;77.92;100379.16;1689977;83;21280;-79
2023/01/16 10:16:38;;;;;;;58.40;27.73;;;;;;;3.94;77.32;100383.10;1660433;85;21896;-80
2023/01/16 10:20:11;;;;;;;59.10;27.37;;;;;;;3.90;77.30;100378.08;1692033;84;21675;-80
2023/01/16 10:23:45;;;;;;;57.05;27.40;;;;;;;4.03;76.88;100374.19;1686718;83;21192;-80
2023/01/16 10:27:17;;;;;;;56.53;27.93;;;;;;;3.95;76.79;100368.60;1654560;86;21189;-79
2023/01/16 10:30:28;;;;;;;58.40;26.45;;;;;;;4.06;76.22;100369.88;1687665;85;21186;-79
2023/01/16 10:33:50;;;;;;;58.85;25.82;;;;;;;4.08;75.88;100358.90;1651131;85;21220;-80
2023/01/16 10:36:58;;;;;;;53.38;24.67;;;;;;;4.03;75.79;100363.36;1686606;85;21204;-81
2023/01/16 10:40:03;;;;;;;49.63;23.40;;;;;;;4.12;75.32;100369.83;1687022;85;21791;-80
2023/01/16 10:49:58;;;;;;;40.85;19.60;;;;;;;3.89;75.36;100357.43;1686090;83;21763;-80
2023/01/16 10:53:03;;;;;;;47.00;21.80;;;;;;;3.81;75.40;100358.08;1687770;85;21214;-81
2023/01/16 10:56:08;;;;;;;45.10;19.45;;;;;;;3.74;75.46;100351.49;1689662;83;21214;-90
2023/01/16 10:59:19;;;;;;;40.45;19.37;;;;;;;3.71;75.61;100354.45;1693536;85;21168;-90
2023/01/16 11:02:32;;;;;;;46.65;20.27;;;;;;;3.61;75.71;100357.09;1673990;83;21659;-91
2023/01/16 11:05:41;;;;;;;41.68;20.37;;;;;;;3.67;75.79;100350.29;1691960;83;21154;-91
2023/01/16 11:08:53;;;;;;;45.28;20.62;;;;;;;3.64;76.05;100351.92;1693960;83;21196;-81
2023/01/16 11:18:56;;;;;;;42.95;21.35;;;;;;;3.67;76.44;100336.77;1698783;84;21140;-89
2023/01/16 11:22:07;;;;;;;36.38;18.57;;;;;;;3.75;76.05;100336.97;1629731;86;21148;-89
2023/01/16 11:25:20;;;;;;;46.95;22.17;;;;;;;3.70;76.21;100332.45;1638792;86;21191;-80
2023/01/16 11:28:32;;;;;;;50.58;22.00;;;;;;;3.68;76.32;100331.24;1664260;85;21741;-79
2023/01/16 11:31:37;;;;;;;41.33;21.30;;;;;;;3.55;76.90;100331.92;1661915;85;21159;-80
2023/01/16 11:34:42;;;;;;;44.73;22.58;;;;;;;3.55;77.07;100335.48;1664026;85;21749;-80
2023/01/16 11:37:59;;;;;;;50.38;24.57;;;;;;;3.83;76.32;100329.91;1650216;85;21236;-80
2023/01/16 11:41:19;;;;;;;48.78;26.37;;;;;;;3.85;76.14;100330.62;1666448;85;21842;-81
2023/01/16 11:48:25;;;;;;;51.83;26.80;;;;;;;3.60;77.54;100335.09;1641996;85;21470;-79
2023/01/16 11:51:33;;;;;;;50.78;25.23;;;;;;;3.62;77.66;100334.45;1661106;85;21171;-80
2023/01/16 11:54:41;;;;;;;48.23;26.20;;;;;;;3.68;77.86;100335.80;1649070;85;21259;-80
2023/01/16 11:58:00;;;;;;;52.30;25.68;;;;;;;3.65;78.00;100339.61;1666991;85;21778;-91
2023/01/16 12:01:15;;;;;;;56.10;24.67;;;;;;;3.56;78.57;100335.84;1633913;86;21192;-91
2023/01/16 12:04:31;;;;;;;47.93;27.02;;;;;;;3.63;78.79;100334.84;1665583;85;21349;-90
2023/01/16 12:07:42;;;;;;;46.60;26.12;;;;;;;3.72;78.81;100335.91;1636829;86;21605;-88
2023/01/16 12:11:05;;;;;;;45.92;24.57;;;;;;;3.74;78.77;100338.83;1663478;84;21222;-91
2023/01/16 12:14:31;;;;;;;45.85;24.52;;;;;;;3.86;78.52;100338.27;1666458;85;21155;-80
2023/01/16 12:17:51;;;;;;;51.33;27.75;;;;;;;3.87;78.15;100339.13;1636839;86;21271;-91
2023/01/16 12:21:02;;;;;;;51.95;25.10;;;;;;;3.76;78.60;100339.53;1680451;84;21812;-90
2023/01/16 12:24:19;;;;;;;49.42;24.82;;;;;;;3.65;79.04;100338.75;1673005;84;21256;-90
2023/01/16 12:27:48;;;;;;;50.63;24.90;;;;;;;3.68;79.39;100337.15;1659627;84;22109;-80
2023/01/16 12:31:41;;;;;;;52.63;25.90;;;;;;;3.70;79.16;100338.72;1670843;84;21844;-80
2023/01/16 12:34:52;;;;;;;49.90;24.85;;;;;;;3.72;79.11;100338.11;1693798;83;21161;-80
2023/01/16 12:38:18;;;;;;;52.98;24.55;;;;;;;3.82;78.80;100337.67;1687936;83;21754;-79
2023/01/16 12:45:26;;;;;;;49.73;25.40;;;;;;;3.63;79.17;100341.60;1657596;86;21221;-81
2023/01/16 12:49:03;;;;;;;49.03;25.50;;;;;;;3.59;79.40;100346.91;1670277;85;21198;-82
2023/01/16 12:52:14;;;;;;;45.60;24.32;;;;;;;3.42;79.82;100346.12;1666333;84;22039;-82
2023/01/16 12:55:27;;;;;;;55.12;27.37;;;;;;;3.39;80.61;100343.66;1658686;84;21184;-79
2023/01/16 12:58:38;;;;;;;47.95;25.10;;;;;;;3.45;80.46;100344.52;1689102;83;21191;-79
2023/01/16 13:01:47;;;;;;;46.23;24.52;;;;;;;3.54;80.29;100349.14;1689818;83;21240;-80
2023/01/16 13:05:21;;;;;;;51.08;24.27;;;;;;;3.50;80.42;100342.28;1662983;83;21191;-90
2023/01/16 13:08:43;;;;;;;44.63;23.07;;;;;;;3.35;80.72;100343.08;1594020;85;21547;-90
2023/01/16 13:15:17;;;;;;;42.93;23.98;;;;;;;3.36;80.58;100343.44;1671060;84;21244;-81
2023/01/16 13:18:26;;;;;;;42.65;22.48;;;;;;;3.28;80.49;100342.72;1638943;86;21232;-79
2023/01/16 13:21:43;;;;;;;40.03;20.48;;;;;;;3.08;81.40;100347.09;1674390;84;21235;-90
2023/01/16 13:24:59;;;;;;;34.48;19.10;;;;;;;3.21;81.36;100346.09;1690274;83;21233;-80
2023/01/16 13:28:45;;;;;;;34.78;20.27;;;;;;;3.00;81.78;100343.31;1675618;84;21240;-91
2023/01/16 13:32:00;;;;;;;34.35;19.87;;;;;;;2.99;82.22;100338.90;1669580;84;21168;-80
2023/01/16 13:35:27;;;;;;;35.10;20.45;;;;;;;3.01;82.27;100339.62;1667636;84;21339;-81
2023/01/16 13:38:58;;;;;;;32.42;18.25;;;;;;;3.11;81.97;100343.30;1632410;86;21236;-80
2023/01/16 13:42:03;;;;;;;39.48;18.00;;;;;;;3.15;81.98;100342.03;1669868;84;21250;-80
2023/01/16 13:48:41;;;;;;;40.88;20.45;;;;;;;3.16;81.70;100338.86;1637142;86;21822;-79
2023/01/16 13:51:47;;;;;;;44.45;21.87;;;;;;;3.21;81.21;100337.48;1697800;83;21749;-80
2023/01/16 13:54:53;;;;;;;44.15;21.12;;;;;;;3.10;81.25;100327.19;1702173;82;21731;-81
2023/01/16 13:58:00;;;;;;;49.95;23.50;;;;;;;3.05;81.29;100327.08;1643706;86;21221;-81
2023/01/16 14:01:09;;;;;;;52.20;24.52;;;;;;;2.96;81.52;100321.58;1598159;87;21209;-80
2023/01/16 14:04:29;;;;;;;50.60;23.50;;;;;;;2.84;82.00;100307.75;1664263;86;21797;-80
2023/01/16 14:11:36;;;;;;;56.40;23.87;;;;;;;2.57;82.53;100311.73;1664047;86;21191;-80
2023/01/16 14:18:27;;;;;;;52.43;22.32;;;;;;;2.58;82.82;100317.48;1664377;86;21231;-81
2023/01/16 14:21:34;;;;;;;44.42;20.85;;;;;;;2.61;82.86;100315.04;1664426;86;21869;-82
2023/01/16 14:24:55;;;;;;;50.55;21.05;;;;;;;2.63;83.01;100317.97;1669352;86;22069;-80
2023/01/16 14:28:00;;;;;;;35.58;18.48;;;;;;;2.89;82.32;100315.84;1616051;87;21232;-81
2023/01/16 14:31:07;;;;;;;35.78;18.25;;;;;;;3.23;80.97;100309.81;1670153;86;21249;-80
2023/01/16 14:34:14;;;;;;;38.45;18.40;;;;;;;3.24;80.51;100312.88;1669900;86;21213;-80
2023/01/16 14:37:37;;;;;;;34.20;17.30;;;;;;;3.28;80.12;100313.48;1669677;86;21237;-80
2023/01/16 14:58:09;;;;;;;30.57;16.48;;;;;;;3.11;80.53;100306.81;1670780;86;21265;-79
2023/01/16 15:04:25;;;;;;;37.90;17.62;;;;;;;3.23;80.43;100314.37;1619133;86;21755;-81
2023/01/16 15:07:37;;;;;;;39.25;16.90;;;;;;;3.20;80.41;100308.74;1670766;86;21878;-81
2023/01/16 15:10:47;;;;;;;36.03;16.93;;;;;;;3.25;80.79;100311.91;1670999;86;21305;-82
2023/01/16 15:24:30;;;;;;;35.00;16.65;;;;;;;3.38;79.91;100321.67;1667490;86;21238;-81
2023/01/16 15:27:38;;;;;;;35.80;17.50;;;;;;;3.35;79.62;100311.14;1665612;86;21190;-81
2023/01/16 15:30:43;;;;;;;39.83;19.62;;;;;;;3.33;79.26;100310.75;1665496;86;21747;-81
2023/01/16 15:33:52;;;;;;;41.73;19.95;;;;;;;3.19;79.33;100311.55;1665491;86;21250;-81
2023/01/16 15:37:05;;;;;;;43.80;20.05;;;;;;;3.02;79.59;100307.58;1665403;86;21765;-80
2023/01/16 15:40:09;;;;;;;41.77;19.57;;;;;;;2.98;79.75;100311.52;1665525;86;21244;-81
2023/01/16 15:46:52;;;;;;;46.75;20.25;;;;;;;2.84;80.37;100314.02;1665411;86;21174;-81
2023/01/16 15:50:11;;;;;;;41.98;19.32;;;;;;;2.72;80.77;100308.25;1665575;86;21732;-81
2023/01/16 15:53:17;;;;;;;35.90;17.77;;;;;;;2.75;80.84;100305.31;1665667;86;21209;-81
2023/01/16 15:56:48;;;;;;;38.20;17.65;;;;;;;2.70;80.95;100302.14;1665425;86;21198;-81
2023/01/16 16:00:01;;;;;;;43.90;18.42;;;;;;;2.73;81.01;100319.42;1665522;86;21250;-81
2023/01/16 16:03:11;;;;;;;34.55;17.75;;;;;;;2.79;80.93;100321.64;1665578;86;21209;-81
2023/01/16 16:06:23;;;;;;;44.13;18.45;;;;;;;2.73;81.03;100309.97;1664169;86;21217;-80
2023/01/16 16:09:30;;;;;;;33.78;17.95;;;;;;;3.00;80.32;100318.99;1664435;86;21249;-81
2023/01/16 16:12:36;;;;;;;40.40;17.50;;;;;;;2.93;80.37;100311.90;1665600;86;21207;-79
2023/01/16 16:19:08;;;;;;;33.67;17.27;;;;;;;2.87;80.74;100308.36;1665393;86;21704;-79
2023/01/16 16:26:04;;;;;;;27.80;15.23;;;;;;;2.85;80.88;100297.30;1662570;86;21230;-80
2023/01/16 16:29:10;;;;;;;;;;;;;;;2.96;80.65;100299.47;1657973;86;21236;-80